D/T METAR WX W/SPE G/SPE TEMP DEWP FEEL
31/01/23 13:20 EGPU 311320Z 29032KT 9999 SCT024 06/03 Q1014 36.8mph 6°C 3°C 4.7°C
31/01/23 12:20 EGPU 311220Z 28028G43 9999 VCSH FEW024 SCT048 06/03 Q1015 VCSH 32.2mph 49.5mph 6°C 3°C 4.7°C
30/01/23 12:50 EGPU 301250Z 26012KT 9999 FEW025 FEW046 08/03 Q1021 13.8mph 8°C 3°C 6.7°C
30/01/23 11:50 EGPU 301150Z 27016KT 9999 FEW025 09/04 Q1021 18.4mph 9°C 4°C 8.0°C
30/01/23 10:20 EGPU 301020Z 28013KT 9999 FEW022 07/04 Q1021 15.0mph 7°C 4°C 6.0°C
30/01/23 09:50 EGPU 300950Z 29014KT 9999 FEW022 07/04 Q1021 16.1mph 7°C 4°C 6.0°C
09/01/23 06:20 EGPU 090620Z AUTO 27018KT 9999 FEW029/// 06/03 Q0986 20.7mph 6°C 3°C 4.7°C
09/01/23 05:50 EGPU 090550Z AUTO 27017KT 9999 FEW030/// 07/03 Q0985 19.6mph 7°C 3°C 5.7°C
09/01/23 05:20 EGPU 090520Z AUTO 28017KT 9999 FEW030/// 07/02 Q0985 REUP 19.6mph 7°C 2°C 5.4°C
09/01/23 04:50 EGPU 090450Z AUTO 28020KT 9999 FEW030/// 07/01 Q0985 REUP 23.0mph 7°C 1°C 5.1°C
09/01/23 04:20 EGPU 090420Z AUTO 28014KT 9999 FEW027/// 07/03 Q0984 REUP 16.1mph 7°C 3°C 5.7°C
09/01/23 03:50 EGPU 090350Z AUTO 28016KT 9999 NCD 07/03 Q0984 REUP 18.4mph 7°C 3°C 5.7°C
09/01/23 03:20 EGPU 090320Z AUTO 28014KT 250V310 9999 FEW024/// 07/03 Q0984 16.1mph 7°C 3°C 5.7°C
09/01/23 02:50 EGPU 090250Z AUTO 29018KT 250V320 9999 FEW030/// 07/03 Q0983 RERA 20.7mph 7°C 3°C 5.7°C
09/01/23 02:20 EGPU 090220Z AUTO 28012KT 250V310 9999 NCD 07/04 Q0983 RERA 13.8mph 7°C 4°C 6.0°C
09/01/23 01:20 EGPU 090120Z AUTO 30014KT 9999 FEW028/// SCT036/// 07/04 Q0982 RERA 16.1mph 7°C 4°C 6.0°C
09/01/23 00:50 EGPU 090050Z AUTO 31016KT 280V340 9999 SCT048/// 07/03 Q0981 REUP 18.4mph 7°C 3°C 5.7°C
09/01/23 00:20 EGPU 090020Z AUTO 29011KT 260V320 9999 FEW026/// 07/04 Q0980 REDZ 12.7mph 7°C 4°C 6.0°C
08/01/23 23:50 EGPU 082350Z AUTO 28010KT 9999 FEW027/// 07/05 Q0980 RERA 11.5mph 7°C 5°C 6.3°C
08/01/23 23:20 EGPU 082320Z AUTO 27007KT 9999 SCT025/// 06/04 Q0980 RERA 8.1mph 6°C 4°C 5.0°C
08/01/23 22:50 EGPU 082250Z AUTO 30011KT 270V330 9999 -RA FEW021/// BKN041/// 06/03 Q0979 -RA 12.7mph 6°C 3°C 4.7°C
08/01/23 22:20 EGPU 082220Z AUTO 28013KT 250V310 9999 NCD 06/04 Q0979 RERA 15.0mph 6°C 4°C 5.0°C
08/01/23 21:50 EGPU 082150Z 29012KT 9999 VCSH SCT030 07/04 Q0978 VCSH 13.8mph 7°C 4°C 6.0°C
08/01/23 20:20 EGPU 082020Z 27010KT 9999 FEW024 07/05 Q0977 11.5mph 7°C 5°C 6.3°C
08/01/23 19:20 EGPU 081920Z 27009KT 9999 SCT024 06/04 Q0976 10.4mph 6°C 4°C 5.0°C
08/01/23 18:50 EGPU 081850Z 27009KT 9999 SCT023 SCT047 07/05 Q0976 10.4mph 7°C 5°C 6.3°C
08/01/23 18:20 EGPU 081820Z 29012KT 5000 -RA SCT035 07/05 Q0976 -RA 13.8mph 7°C 5°C 6.3°C
08/01/23 17:50 EGPU 081750Z AUTO 28010KT 9999 FEW023/// 06/04 Q0975 11.5mph 6°C 4°C 5.0°C
08/01/23 17:20 EGPU 081720Z AUTO 28011KT 9999 FEW024/// 07/05 Q0975 12.7mph 7°C 5°C 6.3°C
08/01/23 16:50 EGPU 081650Z AUTO 27008KT 9999 NCD 06/04 Q0974 RERA 9.2mph 6°C 4°C 5.0°C
08/01/23 16:20 EGPU 081620Z AUTO 26009KT 9999 FEW045/// 06/05 Q0974 RERA 10.4mph 6°C 5°C 5.3°C
08/01/23 15:50 EGPU 081550Z AUTO 26014KT 9999 -RA FEW015/// BKN036/// 07/06 Q0973 -RA 16.1mph 7°C 6°C 6.6°C
08/01/23 15:20 EGPU 081520Z 20014KT 9999 -RA FEW008 SCT033 07/06 Q0973 -RA 16.1mph 7°C 6°C 6.6°C
08/01/23 14:20 EGPU 081420Z 20026KT 8000 -RADZ BKN012 BKN021 06/05 Q0973 -RA -DZ 29.9mph 6°C 5°C 5.3°C
08/01/23 13:50 EGPU 081350Z 20025G35KT 170V230 5000 -RADZ BKN016 06/04 Q0973 -RA -DZ 28.8mph 40.3mph 6°C 4°C 5.0°C
08/01/23 13:20 EGPU 081320Z AUTO 19029KT 7000 UP BKN016/// 06/04 Q0973 UP 33.4mph 6°C 4°C 5.0°C
08/01/23 12:50 EGPU 081250Z AUTO 20029KT 170V230 7000 UP BKN017/// BKN036/// 06/04 Q0973 UP 33.4mph 6°C 4°C 5.0°C
08/01/23 12:20 EGPU 081220Z AUTO 20029KT 170V230 9999 -RA BKN020/// SCT036/// 06/04 Q0973 -RA 33.4mph 6°C 4°C 5.0°C
08/01/23 11:50 EGPU 081150Z AUTO 20032G43KT 170V230 9999 BKN023/// 07/03 Q0973 36.8mph 49.5mph 7°C 3°C 5.7°C
08/01/23 11:20 EGPU 081120Z AUTO 20030G42KT 170V230 9999 BKN025/// BKN032/// 07/03 Q0973 34.5mph 48.3mph 7°C 3°C 5.7°C
08/01/23 10:50 EGPU 081050Z AUTO 20034G44KT 170V230 9999 SCT027/// 07/03 Q0973 39.1mph 50.6mph 7°C 3°C 5.7°C
08/01/23 10:20 EGPU 081020Z AUTO 20034G45KT 170V230 9999 FEW029/// BKN037/// 07/03 Q0973 39.1mph 51.8mph 7°C 3°C 5.7°C
08/01/23 09:50 EGPU 080950Z AUTO 20034G47KT 9999 BKN038/// 07/02 Q0972 39.1mph 54.1mph 7°C 2°C 5.4°C
08/01/23 09:20 EGPU 080920Z AUTO 20034G45KT 170V230 9999 BKN036/// 07/02 Q0972 39.1mph 51.8mph 7°C 2°C 5.4°C
08/01/23 08:50 EGPU 080850Z AUTO 20034G47KT 170V230 9999 BKN035/// BKN044/// 07/02 Q0972 39.1mph 54.1mph 7°C 2°C 5.4°C
08/01/23 08:20 EGPU 080820Z AUTO 20033G45KT 9999 FEW035/// BKN042/// 07/02 Q0972 38.0mph 51.8mph 7°C 2°C 5.4°C
08/01/23 07:50 EGPU 080750Z AUTO 20036G50KT 170V230 9999 SCT044/// 07/02 Q0971 41.4mph 57.5mph 7°C 2°C 5.4°C
08/01/23 07:20 EGPU 080720Z AUTO 20036G47KT 9999 FEW044/// 07/02 Q0971 41.4mph 54.1mph 7°C 2°C 5.4°C
08/01/23 06:50 EGPU 080650Z AUTO 20034G48KT 170V230 9000 BKN041/// 08/03 Q0971 REUP 39.1mph 55.2mph 8°C 3°C 6.7°C
08/01/23 06:20 EGPU 080620Z AUTO 20034G48KT 9000 FEW032/// BKN044/// 07/03 Q0971 REUP 39.1mph 55.2mph 7°C 3°C 5.7°C
08/01/23 05:50 EGPU 080550Z AUTO 21036G46KT 170V240 9000 BKN048/// 07/03 Q0971 REUP 41.4mph 52.9mph 7°C 3°C 5.7°C
08/01/23 05:20 EGPU 080520Z AUTO 21035G47KT 9999 FEW042/// 08/02 Q0972 REUP 40.3mph 54.1mph 8°C 2°C 6.4°C
08/01/23 04:50 EGPU 080450Z AUTO 20029G40KT 180V240 8000 SCT048/// 07/04 Q0972 REUP 33.4mph 46.0mph 7°C 4°C 6.0°C
08/01/23 04:20 EGPU 080420Z AUTO 21036G50KT 170V240 9000 FEW033/// BKN043/// 08/03 Q0972 REUP 41.4mph 57.5mph 8°C 3°C 6.7°C
08/01/23 03:50 EGPU 080350Z AUTO 22035G51KT 180V250 9999 BKN046/// 08/M00 Q0972 REUP 40.3mph 58.7mph 8°C 0°C 5.8°C
08/01/23 03:20 EGPU 080320Z AUTO 22033G45KT 9999 SCT039/// 08/02 Q0973 REUP 38.0mph 51.8mph 8°C 2°C 6.4°C
08/01/23 02:50 EGPU 080250Z AUTO 22034G50KT 9999 BKN045/// 07/03 Q0973 REUP 39.1mph 57.5mph 7°C 3°C 5.7°C
08/01/23 02:20 EGPU 080220Z AUTO 22033G46KT 180V250 9999 FEW044/// 08/02 Q0973 REUP 38.0mph 52.9mph 8°C 2°C 6.4°C
08/01/23 01:50 EGPU 080150Z AUTO 22026G42KT 180V250 8000 FEW027/// BKN039/// 08/04 Q0972 REUP 29.9mph 48.3mph 8°C 4°C 7.0°C
08/01/23 01:20 EGPU 080120Z AUTO 22027G44KT 190V250 9999 NCD 08/05 Q0972 REUP 31.1mph 50.6mph 8°C 5°C 7.3°C
08/01/23 00:20 EGPU 080020Z AUTO 23026G44KT 200V260 8000 // SCT021/// 07/05 Q0972 29.9mph 50.6mph 7°C 5°C 6.3°C
07/01/23 23:50 EGPU 072350Z AUTO 22027G37KT 180V240 9999 // BKN027/// 07/05 Q0971 31.1mph 42.6mph 7°C 5°C 6.3°C
07/01/23 23:20 EGPU 072320Z AUTO 20026G39KT 9999 // BKN028/// SCT042/// 08/06 Q0971 29.9mph 44.9mph 8°C 6°C 7.6°C
07/01/23 22:50 EGPU 072250Z AUTO 20032G42KT 170V230 9999 // FEW017/// BKN024/// 08/06 Q0971 36.8mph 48.3mph 8°C 6°C 7.6°C
07/01/23 22:20 EGPU 072220Z AUTO 19034KT 150V220 6000 // BKN022/// BKN046/// 08/05 Q0971 39.1mph 8°C 5°C 7.3°C
07/01/23 21:50 EGPU 072150Z AUTO 19035G50KT 9999 // SCT024/// BKN030/// 08/05 Q0971 40.3mph 57.5mph 8°C 5°C 7.3°C
07/01/23 21:20 EGPU 072120Z AUTO 19035G46KT 9999 SCT025/// BKN044/// 08/05 Q0971 REUP 40.3mph 52.9mph 8°C 5°C 7.3°C
07/01/23 20:50 EGPU 072050Z AUTO 19036KT 160V220 9999 BKN025/// 08/05 Q0971 RERA 41.4mph 8°C 5°C 7.3°C
07/01/23 20:20 EGPU 072020Z AUTO 19034G45KT 9999 BKN027/// 08/05 Q0971 RERA 39.1mph 51.8mph 8°C 5°C 7.3°C
07/01/23 19:50 EGPU 071950Z AUTO 19034G44KT 9999 // BKN024/// SCT045/// 08/05 Q0971 39.1mph 50.6mph 8°C 5°C 7.3°C
07/01/23 19:20 EGPU 071920Z AUTO 19034G44KT 9999 // FEW023/// BKN031/// 08/05 Q0971 39.1mph 50.6mph 8°C 5°C 7.3°C
07/01/23 18:50 EGPU 071850Z AUTO 19035G46KT 9999 SCT021/// SCT030/// 08/04 Q0971 REUP 40.3mph 52.9mph 8°C 4°C 7.0°C
07/01/23 18:20 EGPU 071820Z AUTO 18035G47KT 9000 // BKN021/// 07/05 Q0972 40.3mph 54.1mph 7°C 5°C 6.3°C
07/01/23 17:50 EGPU 071750Z AUTO 17033G43KT 9999 // FEW020/// BKN024/// 08/05 Q0973 38.0mph 49.5mph 8°C 5°C 7.3°C
07/01/23 17:20 EGPU 071720Z AUTO 17031KT 9999 // BKN024/// BKN034/// 08/05 Q0973 35.7mph 8°C 5°C 7.3°C
07/01/23 16:50 EGPU 071650Z AUTO 17031KT 140V210 9999 BKN027/// BKN036/// 08/04 Q0974 RERA 35.7mph 8°C 4°C 7.0°C
07/01/23 16:20 EGPU 071620Z AUTO 18030G40KT 9999 SCT030/// 08/04 Q0975 34.5mph 46.0mph 8°C 4°C 7.0°C
07/01/23 15:50 EGPU 071550Z AUTO 18031KT 9999 FEW024/// BKN032/// 08/03 Q0975 35.7mph 8°C 3°C 6.7°C
07/01/23 15:20 EGPU 071520Z AUTO 18029KT 9999 // SCT023/// SCT029/// 08/04 Q0976 33.4mph 8°C 4°C 7.0°C
07/01/23 14:50 EGPU 071450Z AUTO 18028G40KT 9999 // FEW019/// SCT039/// 08/04 Q0977 32.2mph 46.0mph 8°C 4°C 7.0°C
07/01/23 14:20 EGPU 071420Z AUTO 18028KT 9999 // SCT021/// 08/05 Q0977 32.2mph 8°C 5°C 7.3°C
07/01/23 13:50 EGPU 071350Z AUTO 18027KT 9999 // SCT021/// SCT039/// 08/05 Q0978 31.1mph 8°C 5°C 7.3°C
07/01/23 12:50 EGPU 071250Z 17025KT 9999 FEW024 08/04 Q0979 28.8mph 8°C 4°C 7.0°C
07/01/23 12:20 EGPU 071220Z 17024KT 9999 SCT020 08/04 Q0980 27.6mph 8°C 4°C 7.0°C
07/01/23 11:50 EGPU 071150Z 17025KT 9999 SCT018 08/04 Q0981 28.8mph 8°C 4°C 7.0°C
07/01/23 11:20 EGPU 071120Z 17023KT 9999 FEW021 08/04 Q0981 26.5mph 8°C 4°C 7.0°C
07/01/23 10:50 EGPU 071050Z 17020KT 9999 FEW024 08/03 Q0982 23.0mph 8°C 3°C 6.7°C
07/01/23 10:20 EGPU 071020Z 18019KT 9999 FEW024 07/03 Q0982 21.9mph 7°C 3°C 5.7°C
07/01/23 09:50 EGPU 070950Z 19020KT 9999 FEW023 07/03 Q0983 23.0mph 7°C 3°C 5.7°C
07/01/23 09:20 EGPU 070920Z 19020KT 9999 FEW023 07/03 Q0983 23.0mph 7°C 3°C 5.7°C
07/01/23 08:50 EGPU 070850Z 20018KT 9999 FEW024 07/02 Q0984 20.7mph 7°C 2°C 5.4°C
07/01/23 08:20 EGPU 070820Z AUTO 19017KT 9999 SCT023/// 07/04 Q0984 19.6mph 7°C 4°C 6.0°C
07/01/23 07:50 EGPU 070750Z AUTO 20013KT 9999 // NCD 07/03 Q0985 15.0mph 7°C 3°C 5.7°C
07/01/23 07:20 EGPU 070720Z AUTO 19012KT 160V220 9999 FEW027/// 07/03 Q0985 13.8mph 7°C 3°C 5.7°C
07/01/23 06:50 EGPU 070650Z AUTO 21010KT 180V240 9999 FEW030/// 06/02 Q0986 11.5mph 6°C 2°C 4.4°C
07/01/23 06:20 EGPU 070620Z AUTO 21011KT 180V240 9999 BKN031/// 06/02 Q0986 12.7mph 6°C 2°C 4.4°C